Time;durP1;ratioP1;P1;durP2;ratioP2;P2;SDS_P1;SDS_P2;PMS_P1;PMS_P2;Temp;Humidity;BMP_temperature;BMP_pressure;BME280_temperature;BME280_humidity;BME280_pressure;Samples;Min_cycle;Max_cycle;Signal;HPM_P1;HPM_P2
2023/10/02 00:00:39;;;;;;;17.60;7.72;;;14.40;99.90;;;;;;5033906;28;20026;-75
2023/10/02 00:03:05;;;;;;;18.67;8.43;;;14.30;99.90;;;;;;5033200;28;20048;-78
2023/10/02 00:05:52;;;;;;;16.00;7.55;;;14.30;99.90;;;;;;5035929;28;20021;-78
2023/10/02 00:14:19;;;;;;;17.50;8.23;;;14.30;99.90;;;;;;5036105;28;20438;-76
2023/10/02 00:17:08;;;;;;;17.10;8.30;;;14.20;99.90;;;;;;5034027;28;20024;-76
2023/10/02 00:19:40;;;;;;;16.45;7.25;;;14.30;99.90;;;;;;5037764;28;20025;-77
2023/10/02 00:25:27;;;;;;;16.50;7.72;;;14.20;99.90;;;;;;5038144;28;20523;-75
2023/10/02 00:27:55;;;;;;;15.88;7.63;;;14.20;99.90;;;;;;5040452;28;20053;-76
2023/10/02 00:30:23;;;;;;;15.48;7.78;;;14.10;99.90;;;;;;5038882;28;20380;-77
2023/10/02 00:32:50;;;;;;;14.90;7.00;;;14.10;99.90;;;;;;5030881;28;20105;-78
2023/10/02 00:35:16;;;;;;;18.05;7.65;;;14.10;99.90;;;;;;5028148;28;20464;-77
2023/10/02 00:37:52;;;;;;;19.38;6.90;;;14.00;99.90;;;;;;5032351;28;20030;-78
2023/10/02 00:40:21;;;;;;;15.02;6.57;;;14.00;99.90;;;;;;5030205;28;20025;-76
2023/10/02 00:43:33;;;;;;;14.15;6.28;;;14.00;99.90;;;;;;5027784;28;20469;-78
2023/10/02 00:45:49;;;;;;;16.38;6.78;;;14.00;99.90;;;;;;5028563;28;20112;-77
2023/10/02 00:48:25;;;;;;;13.57;5.90;;;14.10;99.90;;;;;;5026508;28;20042;-77
2023/10/02 00:50:55;;;;;;;12.77;6.35;;;14.10;99.90;;;;;;5029503;28;20068;-78
2023/10/02 00:56:20;;;;;;;16.77;7.00;;;14.00;99.90;;;;;;5029852;28;20040;-77
2023/10/02 00:59:22;;;;;;;14.90;6.47;;;14.00;99.90;;;;;;5060912;28;20036;-77
2023/10/02 01:01:52;;;;;;;14.63;6.75;;;13.90;99.90;;;;;;5028170;28;20025;-78
2023/10/02 01:09:30;;;;;;;17.40;6.75;;;13.70;99.90;;;;;;5034206;28;20041;-76
2023/10/02 01:11:57;;;;;;;17.40;7.78;;;13.70;99.90;;;;;;5027709;28;20028;-78
2023/10/02 01:17:09;;;;;;;15.68;7.22;;;13.60;99.90;;;;;;5033773;28;20396;-78
2023/10/02 01:19:52;;;;;;;16.95;6.85;;;13.60;99.90;;;;;;5028783;28;20040;-78
2023/10/02 01:22:35;;;;;;;13.60;7.20;;;13.50;99.90;;;;;;5029010;28;20022;-77
2023/10/02 01:25:14;;;;;;;16.48;7.10;;;13.50;99.90;;;;;;5031457;28;20152;-77
2023/10/02 01:27:50;;;;;;;13.68;7.07;;;13.50;99.90;;;;;;5031746;28;20084;-77
2023/10/02 01:30:18;;;;;;;14.70;6.85;;;13.40;99.90;;;;;;5036329;28;20013;-77
2023/10/02 01:33:15;;;;;;;16.90;7.50;;;13.50;99.90;;;;;;5033064;28;20835;-76
2023/10/02 01:35:57;;;;;;;14.70;7.15;;;13.40;99.90;;;;;;5029941;28;20033;-76
2023/10/02 01:38:37;;;;;;;16.25;6.78;;;13.40;99.90;;;;;;5030561;28;20030;-76
2023/10/02 01:41:05;;;;;;;16.95;6.80;;;13.40;99.90;;;;;;5032495;28;20151;-77
2023/10/02 01:43:36;;;;;;;13.50;6.75;;;13.40;99.90;;;;;;5037372;28;20037;-76
2023/10/02 01:46:17;;;;;;;15.00;6.50;;;13.40;99.90;;;;;;5031626;28;20181;-77
2023/10/02 01:48:48;;;;;;;16.00;7.82;;;13.30;99.90;;;;;;5032867;28;20029;-77
2023/10/02 01:51:25;;;;;;;20.45;7.25;;;13.30;99.90;;;;;;5062033;28;20025;-76
2023/10/02 01:53:59;;;;;;;12.75;6.80;;;13.30;99.90;;;;;;5030105;28;20062;-77
2023/10/02 01:56:45;;;;;;;13.23;6.53;;;13.20;99.90;;;;;;5031806;28;20037;-77
2023/10/02 01:59:19;;;;;;;14.57;6.78;;;13.20;99.90;;;;;;5034216;28;20013;-77
2023/10/02 02:01:52;;;;;;;15.27;6.30;;;13.30;99.90;;;;;;5037337;28;20500;-79
2023/10/02 02:04:28;;;;;;;17.10;6.60;;;13.20;99.90;;;;;;5030671;28;20025;-77
2023/10/02 02:06:58;;;;;;;12.95;6.47;;;13.30;99.90;;;;;;5030914;28;20120;-76
2023/10/02 02:09:25;;;;;;;15.52;6.68;;;13.30;99.90;;;;;;5030721;28;20492;-79
2023/10/02 02:12:10;;;;;;;16.90;6.28;;;13.30;99.90;;;;;;5028585;28;20159;-79
2023/10/02 02:14:56;;;;;;;13.32;5.72;;;13.30;99.90;;;;;;5033966;28;20437;-78
2023/10/02 02:17:23;;;;;;;15.63;6.53;;;13.30;99.90;;;;;;5033347;28;20026;-78
2023/10/02 02:19:59;;;;;;;18.58;6.40;;;13.30;99.90;;;;;;5033083;28;20030;-78
2023/10/02 02:22:31;;;;;;;16.83;6.47;;;13.30;99.90;;;;;;5030182;28;20038;-77
2023/10/02 02:24:58;;;;;;;15.75;6.97;;;13.20;99.90;;;;;;5031605;28;20032;-77
2023/10/02 02:27:24;;;;;;;17.13;7.15;;;13.20;99.90;;;;;;5031818;28;20171;-77
2023/10/02 02:29:54;;;;;;;15.95;6.60;;;13.20;99.90;;;;;;5031664;28;20049;-77
2023/10/02 02:32:36;;;;;;;16.48;6.93;;;13.20;99.90;;;;;;5033097;28;20045;-77
2023/10/02 02:35:06;;;;;;;14.32;6.32;;;13.20;99.90;;;;;;5030474;28;20025;-76
2023/10/02 02:37:33;;;;;;;18.63;7.63;;;13.20;99.90;;;;;;5029554;28;20523;-77
2023/10/02 02:40:24;;;;;;;16.10;7.68;;;13.10;99.90;;;;;;5033487;28;20362;-77
2023/10/02 02:42:54;;;;;;;16.40;6.90;;;13.10;99.90;;;;;;5050042;28;20048;-78
2023/10/02 02:45:28;;;;;;;14.63;6.55;;;13.10;99.90;;;;;;5033417;28;20369;-77
2023/10/02 02:48:03;;;;;;;13.95;6.60;;;13.10;99.90;;;;;;5027842;28;20030;-77
2023/10/02 02:50:33;;;;;;;13.35;5.95;;;13.10;99.90;;;;;;5030923;28;20032;-77
2023/10/02 02:53:17;;;;;;;16.25;6.63;;;13.10;99.90;;;;;;5036954;28;20029;-77
2023/10/02 02:58:58;;;;;;;14.70;7.32;;;13.00;99.90;;;;;;5047599;28;20086;-71
2023/10/02 03:01:24;;;;;;;15.23;7.63;;;13.00;99.90;;;;;;5060671;28;20025;-72
2023/10/02 03:04:11;;;;;;;13.80;6.70;;;12.90;99.90;;;;;;5041636;28;20026;-72
2023/10/02 03:06:37;;;;;;;13.95;6.88;;;12.90;99.90;;;;;;5061641;28;20024;-72
2023/10/02 03:09:09;;;;;;;15.45;7.22;;;12.90;99.90;;;;;;5047607;28;20039;-72
2023/10/02 03:11:35;;;;;;;13.50;6.70;;;12.90;99.90;;;;;;5048832;28;20059;-72
2023/10/02 03:14:12;;;;;;;15.95;6.72;;;12.80;99.90;;;;;;5044830;28;20388;-72
2023/10/02 03:16:44;;;;;;;15.38;6.85;;;12.80;99.90;;;;;;5044129;28;20468;-71
2023/10/02 03:19:13;;;;;;;14.93;6.32;;;12.80;99.90;;;;;;5046463;28;20064;-72
2023/10/02 03:21:42;;;;;;;16.20;6.55;;;12.80;99.90;;;;;;5046607;28;20025;-73
2023/10/02 03:24:08;;;;;;;19.27;7.30;;;12.70;99.90;;;;;;5043891;28;20034;-72
2023/10/02 03:29:11;;;;;;;14.27;7.25;;;12.70;99.90;;;;;;5045973;28;20021;-73
2023/10/02 03:31:49;;;;;;;16.23;7.35;;;12.70;99.90;;;;;;5041272;28;20531;-73
2023/10/02 03:34:29;;;;;;;14.30;6.63;;;12.70;99.90;;;;;;5043514;28;20040;-72
2023/10/02 03:36:59;;;;;;;15.65;7.22;;;12.60;99.90;;;;;;5041256;28;20052;-72
2023/10/02 03:39:53;;;;;;;14.80;6.85;;;12.60;99.90;;;;;;5048398;28;20106;-72
2023/10/02 03:42:22;;;;;;;13.63;6.20;;;12.60;99.90;;;;;;5043852;28;20033;-72
2023/10/02 03:44:49;;;;;;;13.82;6.63;;;12.50;99.90;;;;;;5043079;28;20036;-72
2023/10/02 03:47:15;;;;;;;15.88;7.05;;;12.50;99.90;;;;;;5057332;28;20055;-72
2023/10/02 03:49:44;;;;;;;14.32;6.88;;;12.50;99.90;;;;;;5046441;28;20025;-72
2023/10/02 03:52:30;;;;;;;18.45;7.03;;;12.40;99.90;;;;;;5045411;28;20024;-72
2023/10/02 03:54:57;;;;;;;16.73;7.43;;;12.40;99.90;;;;;;5040614;28;20109;-72
2023/10/02 04:02:50;;;;;;;16.02;6.18;;;12.40;99.90;;;;;;5044580;28;20051;-74
2023/10/02 04:05:32;;;;;;;14.07;7.30;;;12.30;99.90;;;;;;5049351;28;20119;-73
2023/10/02 04:08:25;;;;;;;18.52;7.68;;;12.30;99.90;;;;;;5046902;28;20021;-74
2023/10/02 04:10:56;;;;;;;19.63;8.20;;;12.20;99.90;;;;;;5043797;28;20074;-73
2023/10/02 04:13:34;;;;;;;16.48;7.28;;;12.20;99.90;;;;;;5046861;28;20120;-72
2023/10/02 04:19:00;;;;;;;15.52;6.53;;;12.20;99.90;;;;;;5049066;28;20056;-72
2023/10/02 04:21:33;;;;;;;16.88;7.63;;;12.20;99.90;;;;;;5042698;28;20048;-72
2023/10/02 04:24:09;;;;;;;15.70;7.20;;;12.10;99.90;;;;;;5043627;28;20067;-72
2023/10/02 04:26:41;;;;;;;15.07;7.05;;;12.10;99.90;;;;;;5048265;28;20013;-72
2023/10/02 04:29:25;;;;;;;15.73;6.90;;;12.10;99.90;;;;;;5045748;28;21425;-73
2023/10/02 04:34:37;;;;;;;;;;;12.10;99.90;;;;;;5043382;28;20395;-72
2023/10/02 04:37:22;;;;;;;19.55;7.32;;;12.10;99.90;;;;;;5041980;28;19943;-72
2023/10/02 04:42:29;;;;;;;16.80;8.25;;;12.10;99.90;;;;;;5047963;28;20049;-72
2023/10/02 04:44:58;;;;;;;17.10;7.28;;;12.10;99.90;;;;;;5048173;28;20025;-72
2023/10/02 04:47:42;;;;;;;18.83;7.95;;;12.10;99.90;;;;;;5047724;28;20032;-73
2023/10/02 04:52:57;;;;;;;15.80;7.82;;;12.10;99.90;;;;;;5048232;28;20225;-72
2023/10/02 04:55:27;;;;;;;;;;;12.10;99.90;;;;;;5047835;28;20026;-72
2023/10/02 04:58:14;;;;;;;17.15;7.70;;;12.00;99.90;;;;;;5045378;28;20057;-74
2023/10/02 05:03:36;;;;;;;16.13;7.07;;;12.10;99.90;;;;;;5049229;28;20075;-74
2023/10/02 05:06:06;;;;;;;17.08;7.57;;;12.10;99.90;;;;;;5051791;28;20025;-75
2023/10/02 05:08:40;;;;;;;17.95;7.80;;;12.10;99.90;;;;;;5048522;28;20429;-74
2023/10/02 05:11:45;;;;;;;17.75;7.57;;;12.10;99.90;;;;;;5049126;28;20438;-75
2023/10/02 05:14:28;;;;;;;20.60;8.25;;;12.10;99.90;;;;;;5047755;28;20529;-75
2023/10/02 05:17:41;;;;;;;22.50;7.95;;;12.20;99.90;;;;;;5048969;28;20139;-73
2023/10/02 05:20:07;;;;;;;18.13;8.20;;;12.20;99.90;;;;;;5042114;28;20025;-73
2023/10/02 05:22:41;;;;;;;18.20;9.00;;;12.20;99.90;;;;;;5047350;28;20514;-72
2023/10/02 05:25:07;;;;;;;;;;;12.30;99.90;;;;;;5045491;28;20018;-74
2023/10/02 05:27:38;;;;;;;18.65;8.02;;;12.30;99.90;;;;;;5043141;28;19908;-74
2023/10/02 05:30:17;;;;;;;17.30;8.43;;;12.30;99.90;;;;;;5040309;28;20064;-74
2023/10/02 05:32:43;;;;;;;19.45;7.63;;;12.30;99.90;;;;;;5047347;28;20029;-74
2023/10/02 05:37:45;;;;;;;19.13;8.30;;;12.30;99.90;;;;;;5048319;28;20035;-73
2023/10/02 05:48:31;;;;;;;19.17;8.35;;;12.20;99.90;;;;;;5042914;28;20057;-74
2023/10/02 05:50:58;;;;;;;18.38;7.82;;;12.20;99.90;;;;;;5046124;28;20107;-75
2023/10/02 05:53:26;;;;;;;20.85;8.35;;;12.20;99.90;;;;;;5043885;28;20028;-71
2023/10/02 05:58:42;;;;;;;18.90;8.63;;;12.20;99.90;;;;;;5049775;28;20025;-73
2023/10/02 06:01:26;;;;;;;18.60;8.07;;;12.20;99.90;;;;;;5049031;28;20529;-74
2023/10/02 06:03:58;;;;;;;22.33;8.57;;;12.20;99.90;;;;;;5045063;28;21070;-74
2023/10/02 06:06:25;;;;;;;20.15;7.50;;;12.30;99.90;;;;;;5046773;28;20391;-74
2023/10/02 06:09:00;;;;;;;17.45;8.23;;;12.30;99.90;;;;;;5061623;28;20090;-74
2023/10/02 06:11:33;;;;;;;23.08;8.52;;;12.30;99.90;;;;;;5047792;28;20021;-74
2023/10/02 06:14:10;;;;;;;18.63;8.35;;;12.30;99.90;;;;;;5047817;28;20020;-73
2023/10/02 06:16:39;;;;;;;23.90;8.30;;;12.30;99.90;;;;;;5046066;28;20033;-74
2023/10/02 06:19:13;;;;;;;24.83;8.45;;;12.40;99.90;;;;;;5047637;28;20021;-73
2023/10/02 06:24:30;;;;;;;21.83;8.30;;;12.50;99.90;;;;;;5044992;28;20381;-73
2023/10/02 06:26:57;;;;;;;19.88;8.88;;;12.50;99.90;;;;;;5047614;28;20021;-74
2023/10/02 06:29:29;;;;;;;21.08;8.85;;;12.60;99.90;;;;;;5046836;28;20078;-74
2023/10/02 06:31:58;;;;;;;22.25;8.85;;;12.60;99.90;;;;;;5044009;28;20026;-74
2023/10/02 06:34:37;;;;;;;19.30;9.00;;;12.70;99.90;;;;;;5044095;28;20083;-74
2023/10/02 06:37:13;;;;;;;18.83;8.60;;;12.70;99.90;;;;;;5044205;28;20407;-74
2023/10/02 06:39:42;;;;;;;19.17;8.05;;;12.80;99.90;;;;;;5042988;28;20013;-74
2023/10/02 06:42:15;;;;;;;22.42;8.80;;;12.80;99.90;;;;;;5047937;28;20040;-74
2023/10/02 06:44:42;;;;;;;19.98;9.20;;;12.90;99.90;;;;;;5049522;28;20013;-74
2023/10/02 06:47:15;;;;;;;20.13;9.05;;;12.90;99.90;;;;;;5046719;28;20060;-74
2023/10/02 06:49:44;;;;;;;17.77;8.07;;;13.00;99.90;;;;;;5042574;28;20541;-74
2023/10/02 06:52:16;;;;;;;18.73;9.32;;;13.00;99.90;;;;;;5047662;28;20060;-73
2023/10/02 06:54:49;;;;;;;16.95;7.60;;;13.10;99.90;;;;;;5043815;28;20028;-73
2023/10/02 06:57:24;;;;;;;22.52;9.15;;;13.10;99.90;;;;;;5048405;28;20418;-73
2023/10/02 06:59:51;;;;;;;22.00;8.95;;;13.20;99.90;;;;;;5046940;28;20446;-74
2023/10/02 07:02:23;;;;;;;23.25;10.18;;;13.30;99.90;;;;;;5045425;28;20079;-73
2023/10/02 07:04:50;;;;;;;23.58;10.02;;;13.40;99.90;;;;;;5046702;28;20032;-74
2023/10/02 07:07:21;;;;;;;22.20;9.30;;;13.40;99.90;;;;;;5047016;28;20032;-74
2023/10/02 07:09:48;;;;;;;18.17;9.20;;;13.50;99.90;;;;;;5043799;28;20698;-73
2023/10/02 07:12:17;;;;;;;21.63;9.52;;;13.50;99.90;;;;;;5045346;28;20024;-73
2023/10/02 07:14:45;;;;;;;20.42;8.82;;;13.60;99.90;;;;;;5046250;28;20084;-73
2023/10/02 07:17:17;;;;;;;21.23;9.27;;;13.70;99.90;;;;;;5046951;28;20021;-73
2023/10/02 07:19:48;;;;;;;21.38;9.68;;;13.60;99.90;;;;;;5049614;28;20186;-74
2023/10/02 07:22:22;;;;;;;22.80;8.07;;;13.70;99.90;;;;;;5042694;28;20022;-74
2023/10/02 07:24:52;;;;;;;21.25;9.85;;;13.80;99.90;;;;;;5047684;28;20028;-73
2023/10/02 07:27:28;;;;;;;20.63;9.60;;;13.80;99.90;;;;;;5046195;28;20033;-73
2023/10/02 07:30:05;;;;;;;18.20;9.90;;;13.80;99.90;;;;;;5044532;28;20497;-73
2023/10/02 07:32:37;;;;;;;18.02;9.13;;;13.90;99.90;;;;;;5045106;28;20051;-73
2023/10/02 07:35:21;;;;;;;17.48;8.98;;;14.00;99.90;;;;;;5046079;28;20027;-73
2023/10/02 07:37:58;;;;;;;19.55;9.38;;;14.00;99.90;;;;;;5046775;28;20041;-74
2023/10/02 07:43:23;;;;;;;23.92;11.50;;;14.10;99.90;;;;;;5040808;28;20500;-73
2023/10/02 07:46:02;;;;;;;23.48;11.25;;;14.20;99.90;;;;;;5046396;28;20625;-73
2023/10/02 07:48:33;;;;;;;24.20;9.93;;;14.30;99.90;;;;;;5040085;28;20036;-74
2023/10/02 07:51:00;;;;;;;21.58;9.13;;;14.30;99.90;;;;;;5041855;28;20029;-74
2023/10/02 07:53:39;;;;;;;21.13;10.73;;;14.40;99.90;;;;;;5044248;28;20092;-74
2023/10/02 07:56:06;;;;;;;21.45;9.65;;;14.50;99.90;;;;;;5046795;28;20559;-74
2023/10/02 07:58:33;;;;;;;19.92;10.00;;;14.50;99.90;;;;;;5047140;28;20032;-73
2023/10/02 08:01:06;;;;;;;21.30;10.25;;;14.60;99.90;;;;;;5045875;28;20102;-72
2023/10/02 08:03:42;;;;;;;20.13;9.85;;;14.70;99.90;;;;;;5043499;28;20044;-73
2023/10/02 08:06:21;;;;;;;23.02;8.88;;;14.70;99.90;;;;;;5041903;28;20025;-73
2023/10/02 08:11:41;;;;;;;18.45;9.02;;;14.90;99.90;;;;;;5045056;28;20082;-73
2023/10/02 08:14:34;;;;;;;22.05;10.23;;;14.90;99.90;;;;;;5045888;28;20025;-72
2023/10/02 08:18:03;;;;;;;25.00;11.77;;;15.00;99.90;;;;;;5038630;28;20129;-73
2023/10/02 08:20:38;;;;;;;21.77;8.82;;;15.10;99.90;;;;;;5049941;28;20111;-72
2023/10/02 08:23:23;;;;;;;22.10;9.57;;;15.20;99.90;;;;;;5043746;28;20020;-73
2023/10/02 08:26:00;;;;;;;20.23;9.52;;;15.30;99.90;;;;;;5046501;28;20029;-73
2023/10/02 08:28:30;;;;;;;18.92;8.82;;;15.40;99.90;;;;;;5048314;28;20212;-73
2023/10/02 08:31:04;;;;;;;22.15;9.68;;;15.50;99.90;;;;;;5047223;28;20044;-73
2023/10/02 08:33:31;;;;;;;20.98;9.88;;;15.50;99.90;;;;;;5047168;28;20083;-73
2023/10/02 08:36:09;;;;;;;27.95;10.23;;;15.70;99.90;;;;;;5042844;28;20119;-74
2023/10/02 08:38:36;;;;;;;20.35;9.77;;;15.70;99.90;;;;;;5045702;28;20491;-73
2023/10/02 08:41:06;;;;;;;21.77;9.90;;;15.80;99.90;;;;;;5043918;28;20052;-73
2023/10/02 08:43:41;;;;;;;20.63;9.18;;;15.90;99.90;;;;;;5046057;28;20430;-73
2023/10/02 08:46:21;;;;;;;18.50;9.27;;;16.00;99.90;;;;;;5044850;28;20029;-74
2023/10/02 08:48:54;;;;;;;17.27;8.95;;;16.10;99.90;;;;;;5047099;28;20051;-74
2023/10/02 08:51:29;;;;;;;18.17;8.73;;;16.20;99.90;;;;;;5051928;28;20056;-73
2023/10/02 08:53:58;;;;;;;18.27;8.27;;;16.30;99.90;;;;;;5047071;28;20078;-73
2023/10/02 08:56:37;;;;;;;22.40;10.00;;;16.40;99.90;;;;;;5050163;22;20488;-76
2023/10/02 08:59:18;;;;;;;20.92;9.27;;;16.40;99.90;;;;;;5029401;28;20033;-77
2023/10/02 09:01:49;;;;;;;21.20;8.93;;;16.50;99.90;;;;;;5024584;28;20029;-77
2023/10/02 09:04:28;;;;;;;23.92;9.77;;;16.60;99.90;;;;;;5027752;28;20022;-77
2023/10/02 09:07:14;;;;;;;20.33;10.00;;;16.70;99.90;;;;;;5027627;28;20103;-77
2023/10/02 09:09:45;;;;;;;25.20;9.60;;;16.80;99.90;;;;;;5025173;28;20514;-76
2023/10/02 09:12:24;;;;;;;22.30;9.95;;;17.00;99.90;;;;;;5027979;28;20558;-77
2023/10/02 09:14:54;;;;;;;19.35;9.57;;;17.00;99.90;;;;;;5027792;28;20105;-77
2023/10/02 09:17:20;;;;;;;21.35;8.40;;;17.10;99.90;;;;;;5023057;28;20464;-77
2023/10/02 09:19:53;;;;;;;22.13;9.25;;;17.20;99.90;;;;;;5023935;28;20028;-77
2023/10/02 09:22:20;;;;;;;25.10;9.87;;;17.20;99.90;;;;;;5024496;28;20025;-77
2023/10/02 09:24:58;;;;;;;18.80;9.20;;;17.40;99.90;;;;;;5025440;28;20324;-77
2023/10/02 09:27:28;;;;;;;19.05;8.63;;;17.40;99.90;;;;;;5026116;28;20084;-77
2023/10/02 09:32:49;;;;;;;22.85;9.00;;;17.60;99.90;;;;;;5023718;28;20041;-77
2023/10/02 09:35:40;;;;;;;22.75;9.40;;;17.70;99.90;;;;;;5024149;28;20143;-78
2023/10/02 09:38:24;;;;;;;20.25;9.73;;;17.80;99.90;;;;;;5028113;28;20527;-77
2023/10/02 09:43:23;;;;;;;18.08;9.38;;;17.90;99.90;;;;;;5028848;28;20029;-77
2023/10/02 09:45:53;;;;;;;25.02;9.07;;;18.00;99.90;;;;;;5024337;28;20055;-77
2023/10/02 09:48:56;;;;;;;22.20;9.40;;;18.20;99.90;;;;;;5026078;28;20443;-77
2023/10/02 09:51:30;;;;;;;20.45;9.23;;;18.20;99.90;;;;;;5028307;28;20049;-77
2023/10/02 09:54:28;;;;;;;19.02;9.55;;;18.30;99.90;;;;;;5026199;28;20460;-76
2023/10/02 09:57:25;;;;;;;20.73;9.07;;;18.50;99.90;;;;;;5021700;28;20026;-77
2023/10/02 09:59:54;;;;;;;23.80;10.75;;;18.60;99.90;;;;;;5025614;28;20508;-77
2023/10/02 10:07:52;;;;;;;22.17;9.88;;;18.90;99.90;;;;;;5026801;28;20191;-77
2023/10/02 10:10:46;;;;;;;23.92;10.30;;;19.00;99.90;;;;;;5027538;28;20029;-77
2023/10/02 10:13:27;;;;;;;24.05;11.10;;;19.20;99.90;;;;;;5023554;28;20026;-77
2023/10/02 10:16:23;;;;;;;23.15;10.10;;;19.40;99.90;;;;;;5024424;28;20082;-77
2023/10/02 10:22:10;;;;;;;24.92;9.98;;;19.70;99.90;;;;;;5026006;28;20507;-76
2023/10/02 10:24:56;;;;;;;21.98;9.88;;;19.70;99.90;;;;;;5026496;28;20025;-77
2023/10/02 10:27:40;;;;;;;23.55;11.07;;;19.80;99.90;;;;;;5042247;28;20053;-77
2023/10/02 10:30:28;;;;;;;;;;;19.80;99.90;;;;;;5025206;28;20025;-77
2023/10/02 10:35:57;;;;;;;21.88;9.38;;;20.00;99.40;;;;;;5026622;28;20083;-77
2023/10/02 10:38:36;;;;;;;23.05;10.57;;;20.10;99.00;;;;;;5026891;28;20045;-77
2023/10/02 10:41:09;;;;;;;26.75;10.63;;;20.20;98.80;;;;;;5024540;28;20029;-77
2023/10/02 10:46:30;;;;;;;25.58;11.23;;;20.40;97.90;;;;;;5027432;28;20684;-77
2023/10/02 10:49:24;;;;;;;24.10;10.57;;;20.40;96.50;;;;;;5024106;28;20030;-78
2023/10/02 10:51:52;;;;;;;26.65;11.07;;;20.50;96.40;;;;;;5027172;28;20109;-77
2023/10/02 10:54:19;;;;;;;25.00;10.35;;;20.60;96.10;;;;;;5023724;28;20060;-77
2023/10/02 11:00:23;;;;;;;23.90;10.90;;;20.90;94.70;;;;;;5028919;28;20032;-77
2023/10/02 11:03:14;;;;;;;18.92;9.43;;;21.00;94.30;;;;;;5028893;28;20082;-77
2023/10/02 11:05:41;;;;;;;22.42;10.35;;;21.10;94.40;;;;;;5026495;28;20049;-77
2023/10/02 11:08:25;;;;;;;23.90;10.50;;;21.10;93.80;;;;;;5020914;28;20550;-77
2023/10/02 11:11:21;;;;;;;22.00;9.73;;;21.20;91.60;;;;;;5025077;28;20116;-77
2023/10/02 11:13:55;;;;;;;25.58;11.30;;;21.20;91.90;;;;;;5028298;28;20428;-77
2023/10/02 11:16:31;;;;;;;25.83;11.10;;;21.20;91.20;;;;;;5025882;28;20040;-77
2023/10/02 11:19:34;;;;;;;24.88;11.18;;;21.30;90.20;;;;;;5026477;28;20483;-77
2023/10/02 11:22:21;;;;;;;23.52;10.93;;;21.40;89.10;;;;;;5026150;28;20018;-77
2023/10/02 11:25:18;;;;;;;26.90;10.93;;;21.60;86.90;;;;;;5028203;28;20018;-77
2023/10/02 11:27:41;;;;;;;27.17;12.70;;;21.80;86.10;;;;;;5024719;28;20262;-77
2023/10/02 11:30:07;;;;;;;28.15;12.40;;;21.80;86.40;;;;;;5025105;28;20049;-76
2023/10/02 11:33:05;;;;;;;25.25;12.05;;;21.80;86.30;;;;;;5027180;28;20994;-76
2023/10/02 11:35:38;;;;;;;24.08;11.20;;;21.90;85.70;;;;;;5027481;28;20461;-76
2023/10/02 11:38:07;;;;;;;22.40;11.45;;;22.00;83.80;;;;;;5027557;28;20071;-77
2023/10/02 11:40:33;;;;;;;28.38;12.00;;;22.10;83.50;;;;;;5028101;28;20065;-77
2023/10/02 11:43:02;;;;;;;27.85;13.10;;;22.10;83.10;;;;;;5025678;28;20091;-76
2023/10/02 11:45:32;;;;;;;30.40;11.82;;;22.20;83.30;;;;;;5027199;28;20029;-76
2023/10/02 11:47:58;;;;;;;26.67;12.23;;;22.40;83.90;;;;;;5027281;28;20025;-76
2023/10/02 11:50:24;;;;;;;25.58;12.02;;;22.40;84.30;;;;;;5025687;28;20021;-77
2023/10/02 11:52:51;;;;;;;25.50;11.30;;;22.40;84.00;;;;;;5028126;28;20080;-77
2023/10/02 11:55:19;;;;;;;26.52;12.68;;;22.70;83.00;;;;;;5023957;28;20714;-77
2023/10/02 11:57:51;;;;;;;26.90;11.50;;;22.70;82.30;;;;;;5032024;28;20508;-77
2023/10/02 12:00:20;;;;;;;31.70;13.63;;;22.80;81.90;;;;;;5026226;28;20021;-78
2023/10/02 12:02:49;;;;;;;29.80;13.30;;;22.80;82.00;;;;;;5019949;28;20057;-77
2023/10/02 12:05:17;;;;;;;35.08;14.38;;;23.00;80.40;;;;;;5030142;28;20017;-77
2023/10/02 12:07:46;;;;;;;28.88;13.15;;;23.20;78.70;;;;;;5027534;28;20025;-76
2023/10/02 12:10:23;;;;;;;31.83;13.80;;;23.20;78.60;;;;;;5029630;28;20120;-77
2023/10/02 12:12:51;;;;;;;28.50;13.82;;;23.40;78.30;;;;;;5026456;28;20507;-76
2023/10/02 12:15:23;;;;;;;32.70;13.93;;;23.40;78.20;;;;;;5027531;28;20037;-76
2023/10/02 12:17:54;;;;;;;39.53;17.48;;;23.40;77.90;;;;;;5028610;28;20243;-77
2023/10/02 12:20:22;;;;;;;43.13;19.58;;;23.50;76.00;;;;;;5025295;28;20021;-76
2023/10/02 12:22:54;;;;;;;45.22;20.58;;;23.50;75.70;;;;;;5027456;28;20025;-76
2023/10/02 12:25:26;;;;;;;46.03;20.83;;;23.70;74.40;;;;;;5027140;28;20615;-76
2023/10/02 12:27:54;;;;;;;45.80;20.52;;;23.60;73.80;;;;;;5040755;28;20026;-76
2023/10/02 12:30:20;;;;;;;59.80;26.17;;;23.60;73.80;;;;;;5041302;28;20029;-77
2023/10/02 12:32:49;;;;;;;54.88;23.80;;;23.70;72.40;;;;;;5042439;28;20037;-79
2023/10/02 12:35:21;;;;;;;52.30;23.30;;;23.70;72.20;;;;;;5025010;28;20056;-76
2023/10/02 12:37:52;;;;;;;50.60;23.58;;;23.70;71.80;;;;;;5025150;28;20030;-76
2023/10/02 12:40:31;;;;;;;51.10;21.95;;;23.90;72.20;;;;;;5026423;28;20083;-77
2023/10/02 12:43:01;;;;;;;54.60;23.30;;;23.90;72.90;;;;;;5029546;28;20029;-77
2023/10/02 12:45:35;;;;;;;52.35;23.88;;;23.90;73.50;;;;;;5023604;28;20021;-76
2023/10/02 12:48:07;;;;;;;52.92;22.95;;;23.80;73.80;;;;;;5026803;28;20028;-77
2023/10/02 12:51:08;;;;;;;52.90;24.30;;;23.80;73.70;;;;;;5029223;28;20052;-76
2023/10/02 12:53:37;;;;;;;46.13;21.98;;;23.70;73.20;;;;;;5026265;28;20018;-76
2023/10/02 12:56:06;;;;;;;54.15;24.00;;;23.70;74.00;;;;;;5030081;28;20025;-76
2023/10/02 12:58:35;;;;;;;54.28;23.60;;;23.80;74.10;;;;;;5029657;28;20108;-77
2023/10/02 13:01:02;;;;;;;56.88;24.63;;;23.80;73.50;;;;;;5027959;28;20437;-77
2023/10/02 13:03:29;;;;;;;55.22;26.25;;;23.80;71.70;;;;;;5029073;28;20033;-77
2023/10/02 13:05:57;;;;;;;53.25;23.98;;;23.90;71.30;;;;;;5025388;28;20053;-77
2023/10/02 13:08:25;;;;;;;58.53;26.25;;;24.00;70.50;;;;;;5026765;28;20028;-77
2023/10/02 13:10:50;;;;;;;58.30;25.40;;;24.10;70.30;;;;;;5023700;28;20030;-77
2023/10/02 13:13:20;;;;;;;54.33;24.38;;;24.10;71.30;;;;;;5036870;28;20502;-76
2023/10/02 13:15:50;;;;;;;55.65;24.05;;;24.10;70.30;;;;;;5025709;28;20147;-77
2023/10/02 13:18:15;;;;;;;53.05;24.02;;;24.20;69.60;;;;;;5025191;28;20017;-77
2023/10/02 13:20:44;;;;;;;52.33;24.65;;;24.20;69.10;;;;;;5018771;28;20014;-77
2023/10/02 13:23:13;;;;;;;49.80;22.50;;;24.20;69.30;;;;;;5017460;28;20034;-77
2023/10/02 13:25:40;;;;;;;55.15;24.88;;;24.20;69.60;;;;;;5019032;28;20374;-76
2023/10/02 13:28:14;;;;;;;51.97;22.65;;;24.10;69.80;;;;;;5020773;28;20022;-77
2023/10/02 13:30:46;;;;;;;53.45;23.63;;;24.20;69.40;;;;;;5020994;28;20029;-76
2023/10/02 13:33:20;;;;;;;53.80;24.17;;;24.20;69.50;;;;;;5020866;28;21318;-76
2023/10/02 13:35:57;;;;;;;52.75;24.15;;;24.30;70.00;;;;;;5019887;28;20117;-75
2023/10/02 13:38:27;;;;;;;54.03;23.88;;;24.30;69.80;;;;;;5023067;28;20432;-77
2023/10/02 13:40:54;;;;;;;55.55;24.02;;;24.30;69.90;;;;;;5024633;28;21109;-76
2023/10/02 13:43:20;;;;;;;54.15;23.77;;;24.20;70.10;;;;;;5021730;28;20483;-76
2023/10/02 13:45:45;;;;;;;50.03;22.17;;;24.30;69.90;;;;;;5023876;28;20035;-76
2023/10/02 13:48:13;;;;;;;54.92;24.20;;;24.20;70.10;;;;;;5025851;28;20029;-76
2023/10/02 13:50:38;;;;;;;50.92;21.92;;;24.20;70.80;;;;;;5039775;28;20029;-76
2023/10/02 13:53:08;;;;;;;50.40;23.02;;;24.20;70.80;;;;;;5022907;28;20037;-76
2023/10/02 13:55:36;;;;;;;56.25;25.02;;;24.20;71.40;;;;;;5024843;28;20077;-76
2023/10/02 13:58:06;;;;;;;55.55;23.65;;;24.10;71.70;;;;;;5020309;28;20048;-76
2023/10/02 14:00:39;;;;;;;56.88;23.08;;;24.20;72.10;;;;;;5026504;28;20502;-76
2023/10/02 14:03:09;;;;;;;53.70;23.00;;;24.20;72.10;;;;;;5043218;28;20073;-76
2023/10/02 14:05:35;;;;;;;52.42;23.50;;;24.20;72.40;;;;;;5025532;28;20034;-76
2023/10/02 14:08:05;;;;;;;53.38;25.15;;;24.20;71.90;;;;;;5025227;28;20036;-76
2023/10/02 14:10:38;;;;;;;59.00;24.40;;;24.20;71.70;;;;;;5023225;28;20022;-76
2023/10/02 14:13:08;;;;;;;53.13;22.45;;;24.20;71.00;;;;;;5022070;28;20403;-76
2023/10/02 14:15:37;;;;;;;49.95;22.48;;;24.30;70.10;;;;;;5021873;28;20042;-77
2023/10/02 14:18:13;;;;;;;52.40;23.55;;;24.30;70.60;;;;;;5027350;28;20401;-76
2023/10/02 14:20:41;;;;;;;49.47;22.17;;;24.40;69.80;;;;;;5023252;28;20300;-76
2023/10/02 14:23:28;;;;;;;47.22;21.38;;;24.40;69.90;;;;;;5027861;28;20037;-76
2023/10/02 14:25:57;;;;;;;48.97;21.17;;;24.50;69.70;;;;;;5028465;28;20030;-76
2023/10/02 14:28:26;;;;;;;46.08;21.48;;;24.50;69.60;;;;;;5016117;28;20668;-77
2023/10/02 14:30:52;;;;;;;54.13;23.48;;;24.60;69.50;;;;;;5020938;28;20095;-76
2023/10/02 14:33:30;;;;;;;47.35;22.02;;;24.60;69.30;;;;;;5015727;28;20040;-76
2023/10/02 14:35:57;;;;;;;43.15;19.45;;;24.60;69.50;;;;;;5026865;28;20037;-77
2023/10/02 14:38:25;;;;;;;44.30;19.15;;;24.60;69.20;;;;;;5017542;28;20029;-77
2023/10/02 14:41:00;;;;;;;39.75;18.30;;;24.60;69.10;;;;;;5022783;28;20324;-77